sensor_id;sensor_type;location;lat;lon;timestamp;P1;durP1;ratioP1;P2;durP2;ratioP2
72517;SDS011;60540;51.178;6.738;2024-01-30T00:00:56;9.85;;;5.18;;
72517;SDS011;60540;51.178;6.738;2024-01-30T00:03:47;9.75;;;5.13;;
72517;SDS011;60540;51.178;6.738;2024-01-30T00:06:32;9.48;;;5.13;;
72517;SDS011;60540;51.178;6.738;2024-01-30T00:09:16;10.05;;;5.60;;
72517;SDS011;60540;51.178;6.738;2024-01-30T00:12:00;9.63;;;5.30;;
72517;SDS011;60540;51.178;6.738;2024-01-30T00:14:45;10.45;;;5.40;;
72517;SDS011;60540;51.178;6.738;2024-01-30T00:17:29;9.60;;;5.32;;
72517;SDS011;60540;51.178;6.738;2024-01-30T00:20:14;8.05;;;4.85;;
72517;SDS011;60540;51.178;6.738;2024-01-30T00:22:58;10.02;;;5.55;;
72517;SDS011;60540;51.178;6.738;2024-01-30T00:25:42;10.52;;;5.70;;
72517;SDS011;60540;51.178;6.738;2024-01-30T00:28:26;9.98;;;5.55;;
72517;SDS011;60540;51.178;6.738;2024-01-30T00:31:11;12.25;;;5.95;;
72517;SDS011;60540;51.178;6.738;2024-01-30T00:33:56;10.15;;;5.43;;
72517;SDS011;60540;51.178;6.738;2024-01-30T00:36:40;9.48;;;5.32;;
72517;SDS011;60540;51.178;6.738;2024-01-30T00:39:24;10.95;;;5.82;;
72517;SDS011;60540;51.178;6.738;2024-01-30T00:42:09;12.75;;;6.00;;
72517;SDS011;60540;51.178;6.738;2024-01-30T00:44:53;10.73;;;5.47;;
72517;SDS011;60540;51.178;6.738;2024-01-30T00:47:37;9.75;;;5.70;;
72517;SDS011;60540;51.178;6.738;2024-01-30T00:50:21;10.77;;;5.80;;
72517;SDS011;60540;51.178;6.738;2024-01-30T00:53:06;10.00;;;5.70;;
72517;SDS011;60540;51.178;6.738;2024-01-30T00:55:50;9.75;;;5.93;;
72517;SDS011;60540;51.178;6.738;2024-01-30T00:58:34;12.60;;;5.75;;
72517;SDS011;60540;51.178;6.738;2024-01-30T01:01:19;8.90;;;5.20;;
72517;SDS011;60540;51.178;6.738;2024-01-30T01:04:03;11.43;;;5.65;;
72517;SDS011;60540;51.178;6.738;2024-01-30T01:06:48;9.85;;;6.07;;
72517;SDS011;60540;51.178;6.738;2024-01-30T01:09:33;8.98;;;5.40;;
72517;SDS011;60540;51.178;6.738;2024-01-30T01:12:17;10.43;;;5.53;;
72517;SDS011;60540;51.178;6.738;2024-01-30T01:15:02;11.77;;;5.53;;
72517;SDS011;60540;51.178;6.738;2024-01-30T01:17:46;9.98;;;5.85;;
72517;SDS011;60540;51.178;6.738;2024-01-30T01:20:30;12.10;;;5.85;;
72517;SDS011;60540;51.178;6.738;2024-01-30T01:23:14;14.18;;;6.65;;
72517;SDS011;60540;51.178;6.738;2024-01-30T01:25:59;11.10;;;5.63;;
72517;SDS011;60540;51.178;6.738;2024-01-30T01:28:44;10.23;;;5.65;;
72517;SDS011;60540;51.178;6.738;2024-01-30T01:31:29;11.57;;;5.45;;
72517;SDS011;60540;51.178;6.738;2024-01-30T01:34:13;9.18;;;5.35;;
72517;SDS011;60540;51.178;6.738;2024-01-30T01:36:58;12.65;;;6.25;;
72517;SDS011;60540;51.178;6.738;2024-01-30T01:39:42;11.95;;;5.95;;
72517;SDS011;60540;51.178;6.738;2024-01-30T01:42:26;9.57;;;6.00;;
72517;SDS011;60540;51.178;6.738;2024-01-30T01:45:10;17.40;;;6.35;;
72517;SDS011;60540;51.178;6.738;2024-01-30T01:47:54;12.48;;;6.95;;
72517;SDS011;60540;51.178;6.738;2024-01-30T01:50:38;12.93;;;6.43;;
72517;SDS011;60540;51.178;6.738;2024-01-30T01:53:23;11.35;;;5.75;;
72517;SDS011;60540;51.178;6.738;2024-01-30T01:56:07;11.65;;;6.10;;
72517;SDS011;60540;51.178;6.738;2024-01-30T01:58:53;10.82;;;6.45;;
72517;SDS011;60540;51.178;6.738;2024-01-30T02:01:38;12.60;;;6.18;;
72517;SDS011;60540;51.178;6.738;2024-01-30T02:04:25;10.57;;;6.03;;
72517;SDS011;60540;51.178;6.738;2024-01-30T02:07:09;10.88;;;6.45;;
72517;SDS011;60540;51.178;6.738;2024-01-30T02:09:54;12.55;;;6.10;;
72517;SDS011;60540;51.178;6.738;2024-01-30T02:12:39;11.43;;;6.25;;
72517;SDS011;60540;51.178;6.738;2024-01-30T02:15:24;11.80;;;6.35;;
72517;SDS011;60540;51.178;6.738;2024-01-30T02:18:08;11.18;;;6.30;;
72517;SDS011;60540;51.178;6.738;2024-01-30T02:20:53;11.00;;;7.18;;
72517;SDS011;60540;51.178;6.738;2024-01-30T02:23:38;11.93;;;6.68;;
72517;SDS011;60540;51.178;6.738;2024-01-30T02:26:23;11.77;;;6.85;;
72517;SDS011;60540;51.178;6.738;2024-01-30T02:29:07;11.38;;;6.45;;
72517;SDS011;60540;51.178;6.738;2024-01-30T02:31:52;13.35;;;6.88;;
72517;SDS011;60540;51.178;6.738;2024-01-30T02:34:36;16.92;;;7.75;;
72517;SDS011;60540;51.178;6.738;2024-01-30T02:37:21;16.85;;;7.47;;
72517;SDS011;60540;51.178;6.738;2024-01-30T02:40:05;15.45;;;7.72;;
72517;SDS011;60540;51.178;6.738;2024-01-30T02:42:50;12.65;;;6.88;;
72517;SDS011;60540;51.178;6.738;2024-01-30T02:45:34;13.25;;;7.30;;
72517;SDS011;60540;51.178;6.738;2024-01-30T02:48:19;13.02;;;6.70;;
72517;SDS011;60540;51.178;6.738;2024-01-30T02:51:03;14.48;;;7.03;;
72517;SDS011;60540;51.178;6.738;2024-01-30T02:53:47;13.02;;;6.88;;
72517;SDS011;60540;51.178;6.738;2024-01-30T02:56:32;14.10;;;7.38;;
72517;SDS011;60540;51.178;6.738;2024-01-30T02:59:16;17.38;;;7.72;;
72517;SDS011;60540;51.178;6.738;2024-01-30T03:02:00;11.48;;;6.68;;
72517;SDS011;60540;51.178;6.738;2024-01-30T03:04:44;12.07;;;6.90;;
72517;SDS011;60540;51.178;6.738;2024-01-30T03:07:28;12.35;;;6.90;;
72517;SDS011;60540;51.178;6.738;2024-01-30T03:10:13;12.50;;;7.32;;
72517;SDS011;60540;51.178;6.738;2024-01-30T03:12:57;12.35;;;7.25;;
72517;SDS011;60540;51.178;6.738;2024-01-30T03:15:41;12.75;;;7.38;;
72517;SDS011;60540;51.178;6.738;2024-01-30T03:18:25;14.90;;;6.53;;
72517;SDS011;60540;51.178;6.738;2024-01-30T03:21:10;12.88;;;6.85;;
72517;SDS011;60540;51.178;6.738;2024-01-30T03:23:54;17.23;;;7.72;;
72517;SDS011;60540;51.178;6.738;2024-01-30T03:26:38;14.60;;;8.05;;
72517;SDS011;60540;51.178;6.738;2024-01-30T03:29:22;12.65;;;7.53;;
72517;SDS011;60540;51.178;6.738;2024-01-30T03:32:07;13.63;;;7.18;;
72517;SDS011;60540;51.178;6.738;2024-01-30T03:34:51;13.68;;;7.15;;
72517;SDS011;60540;51.178;6.738;2024-01-30T03:37:35;12.02;;;7.15;;
72517;SDS011;60540;51.178;6.738;2024-01-30T03:40:19;13.48;;;6.13;;
72517;SDS011;60540;51.178;6.738;2024-01-30T03:43:04;11.35;;;5.90;;
72517;SDS011;60540;51.178;6.738;2024-01-30T03:45:49;14.00;;;5.75;;
72517;SDS011;60540;51.178;6.738;2024-01-30T03:48:33;11.65;;;6.32;;
72517;SDS011;60540;51.178;6.738;2024-01-30T03:51:17;11.25;;;5.95;;
72517;SDS011;60540;51.178;6.738;2024-01-30T03:54:02;10.88;;;5.68;;
72517;SDS011;60540;51.178;6.738;2024-01-30T03:56:46;11.65;;;5.22;;
72517;SDS011;60540;51.178;6.738;2024-01-30T03:59:31;12.63;;;5.85;;
72517;SDS011;60540;51.178;6.738;2024-01-30T04:02:15;9.55;;;4.88;;
72517;SDS011;60540;51.178;6.738;2024-01-30T04:05:00;13.93;;;6.13;;
72517;SDS011;60540;51.178;6.738;2024-01-30T04:07:44;11.63;;;5.85;;
72517;SDS011;60540;51.178;6.738;2024-01-30T04:10:28;12.52;;;6.20;;
72517;SDS011;60540;51.178;6.738;2024-01-30T04:13:13;10.50;;;5.78;;
72517;SDS011;60540;51.178;6.738;2024-01-30T04:15:58;9.85;;;5.68;;
72517;SDS011;60540;51.178;6.738;2024-01-30T04:18:45;10.70;;;5.68;;
72517;SDS011;60540;51.178;6.738;2024-01-30T04:21:29;11.43;;;5.82;;
72517;SDS011;60540;51.178;6.738;2024-01-30T04:24:13;9.57;;;5.32;;
72517;SDS011;60540;51.178;6.738;2024-01-30T04:26:57;7.80;;;5.30;;
72517;SDS011;60540;51.178;6.738;2024-01-30T04:29:41;10.25;;;5.25;;
72517;SDS011;60540;51.178;6.738;2024-01-30T04:32:26;9.23;;;5.70;;
72517;SDS011;60540;51.178;6.738;2024-01-30T04:35:10;11.27;;;5.32;;
72517;SDS011;60540;51.178;6.738;2024-01-30T04:37:54;10.00;;;5.32;;
72517;SDS011;60540;51.178;6.738;2024-01-30T04:40:38;9.35;;;5.13;;
72517;SDS011;60540;51.178;6.738;2024-01-30T04:43:22;9.10;;;4.85;;
72517;SDS011;60540;51.178;6.738;2024-01-30T04:46:06;11.65;;;6.18;;
72517;SDS011;60540;51.178;6.738;2024-01-30T04:48:50;9.52;;;5.15;;
72517;SDS011;60540;51.178;6.738;2024-01-30T04:51:34;10.10;;;5.00;;
72517;SDS011;60540;51.178;6.738;2024-01-30T04:54:18;10.80;;;5.53;;
72517;SDS011;60540;51.178;6.738;2024-01-30T04:57:03;10.05;;;5.78;;
72517;SDS011;60540;51.178;6.738;2024-01-30T04:59:47;10.00;;;5.68;;
72517;SDS011;60540;51.178;6.738;2024-01-30T05:02:31;12.77;;;5.35;;
72517;SDS011;60540;51.178;6.738;2024-01-30T05:05:16;9.88;;;5.25;;
72517;SDS011;60540;51.178;6.738;2024-01-30T05:08:00;8.88;;;5.43;;
72517;SDS011;60540;51.178;6.738;2024-01-30T05:10:44;11.10;;;5.60;;
72517;SDS011;60540;51.178;6.738;2024-01-30T05:13:29;10.00;;;5.32;;
72517;SDS011;60540;51.178;6.738;2024-01-30T05:16:14;9.40;;;5.15;;
72517;SDS011;60540;51.178;6.738;2024-01-30T05:18:58;7.65;;;5.05;;
72517;SDS011;60540;51.178;6.738;2024-01-30T05:21:43;11.88;;;5.88;;
72517;SDS011;60540;51.178;6.738;2024-01-30T05:24:27;10.52;;;5.45;;
72517;SDS011;60540;51.178;6.738;2024-01-30T05:27:12;9.40;;;5.22;;
72517;SDS011;60540;51.178;6.738;2024-01-30T05:29:57;9.38;;;5.35;;
72517;SDS011;60540;51.178;6.738;2024-01-30T05:32:41;9.85;;;5.32;;
72517;SDS011;60540;51.178;6.738;2024-01-30T05:35:25;10.55;;;5.90;;
72517;SDS011;60540;51.178;6.738;2024-01-30T05:38:11;12.63;;;6.05;;
72517;SDS011;60540;51.178;6.738;2024-01-30T05:40:55;9.10;;;4.72;;
72517;SDS011;60540;51.178;6.738;2024-01-30T05:43:39;8.90;;;5.38;;
72517;SDS011;60540;51.178;6.738;2024-01-30T05:46:23;11.38;;;5.22;;
72517;SDS011;60540;51.178;6.738;2024-01-30T05:49:08;10.80;;;5.40;;
72517;SDS011;60540;51.178;6.738;2024-01-30T05:51:53;11.60;;;5.20;;
72517;SDS011;60540;51.178;6.738;2024-01-30T05:54:37;10.15;;;5.57;;
72517;SDS011;60540;51.178;6.738;2024-01-30T05:57:21;9.90;;;5.40;;
72517;SDS011;60540;51.178;6.738;2024-01-30T06:00:06;9.13;;;5.47;;
72517;SDS011;60540;51.178;6.738;2024-01-30T06:02:51;9.75;;;5.57;;
72517;SDS011;60540;51.178;6.738;2024-01-30T06:05:35;8.10;;;5.05;;
72517;SDS011;60540;51.178;6.738;2024-01-30T06:08:20;11.10;;;5.90;;
72517;SDS011;60540;51.178;6.738;2024-01-30T06:11:04;10.32;;;5.90;;
72517;SDS011;60540;51.178;6.738;2024-01-30T06:13:48;9.13;;;4.82;;
72517;SDS011;60540;51.178;6.738;2024-01-30T06:16:32;11.32;;;5.72;;
72517;SDS011;60540;51.178;6.738;2024-01-30T06:19:17;11.73;;;6.18;;
72517;SDS011;60540;51.178;6.738;2024-01-30T06:22:03;10.15;;;5.35;;
72517;SDS011;60540;51.178;6.738;2024-01-30T06:24:47;10.02;;;5.90;;
72517;SDS011;60540;51.178;6.738;2024-01-30T06:27:32;9.77;;;5.38;;
72517;SDS011;60540;51.178;6.738;2024-01-30T06:30:17;10.18;;;5.68;;
72517;SDS011;60540;51.178;6.738;2024-01-30T06:33:02;9.80;;;5.85;;
72517;SDS011;60540;51.178;6.738;2024-01-30T06:35:46;10.73;;;6.18;;
72517;SDS011;60540;51.178;6.738;2024-01-30T06:38:31;11.85;;;6.32;;
72517;SDS011;60540;51.178;6.738;2024-01-30T06:41:15;10.25;;;5.82;;
72517;SDS011;60540;51.178;6.738;2024-01-30T06:44:01;11.48;;;5.28;;
72517;SDS011;60540;51.178;6.738;2024-01-30T06:46:46;9.95;;;5.47;;
72517;SDS011;60540;51.178;6.738;2024-01-30T06:49:31;12.70;;;5.75;;
72517;SDS011;60540;51.178;6.738;2024-01-30T06:52:15;11.85;;;5.82;;
72517;SDS011;60540;51.178;6.738;2024-01-30T06:54:59;11.13;;;6.00;;
72517;SDS011;60540;51.178;6.738;2024-01-30T06:57:43;11.48;;;5.63;;
72517;SDS011;60540;51.178;6.738;2024-01-30T07:00:28;10.90;;;6.05;;
72517;SDS011;60540;51.178;6.738;2024-01-30T07:03:12;10.07;;;5.55;;
72517;SDS011;60540;51.178;6.738;2024-01-30T07:05:56;9.82;;;5.72;;
72517;SDS011;60540;51.178;6.738;2024-01-30T07:08:40;11.32;;;5.72;;
72517;SDS011;60540;51.178;6.738;2024-01-30T07:11:24;9.95;;;5.93;;
72517;SDS011;60540;51.178;6.738;2024-01-30T07:14:09;10.30;;;5.68;;
72517;SDS011;60540;51.178;6.738;2024-01-30T07:16:53;12.63;;;5.78;;
72517;SDS011;60540;51.178;6.738;2024-01-30T07:19:37;8.63;;;5.22;;
72517;SDS011;60540;51.178;6.738;2024-01-30T07:22:22;10.77;;;6.00;;
72517;SDS011;60540;51.178;6.738;2024-01-30T07:25:06;10.00;;;6.65;;
72517;SDS011;60540;51.178;6.738;2024-01-30T07:27:51;11.05;;;5.97;;
72517;SDS011;60540;51.178;6.738;2024-01-30T07:30:35;10.65;;;6.47;;
72517;SDS011;60540;51.178;6.738;2024-01-30T07:33:19;7.68;;;4.93;;
72517;SDS011;60540;51.178;6.738;2024-01-30T07:36:03;9.82;;;5.13;;
72517;SDS011;60540;51.178;6.738;2024-01-30T07:38:48;9.45;;;5.93;;
72517;SDS011;60540;51.178;6.738;2024-01-30T07:41:32;11.07;;;5.63;;
72517;SDS011;60540;51.178;6.738;2024-01-30T07:44:17;11.90;;;5.82;;
72517;SDS011;60540;51.178;6.738;2024-01-30T07:47:01;11.85;;;5.88;;
72517;SDS011;60540;51.178;6.738;2024-01-30T07:49:46;10.75;;;5.45;;
72517;SDS011;60540;51.178;6.738;2024-01-30T07:52:31;10.77;;;5.80;;
72517;SDS011;60540;51.178;6.738;2024-01-30T07:55:16;9.93;;;5.15;;
72517;SDS011;60540;51.178;6.738;2024-01-30T07:58:00;10.75;;;5.55;;
72517;SDS011;60540;51.178;6.738;2024-01-30T08:00:45;9.57;;;5.03;;
72517;SDS011;60540;51.178;6.738;2024-01-30T08:03:29;11.27;;;6.07;;
72517;SDS011;60540;51.178;6.738;2024-01-30T08:06:13;10.43;;;5.43;;
72517;SDS011;60540;51.178;6.738;2024-01-30T08:08:58;9.88;;;5.43;;
72517;SDS011;60540;51.178;6.738;2024-01-30T08:11:43;10.77;;;5.47;;
72517;SDS011;60540;51.178;6.738;2024-01-30T08:14:27;9.07;;;5.43;;
72517;SDS011;60540;51.178;6.738;2024-01-30T08:17:12;9.50;;;5.22;;
72517;SDS011;60540;51.178;6.738;2024-01-30T08:19:56;9.35;;;5.57;;
72517;SDS011;60540;51.178;6.738;2024-01-30T08:22:41;12.05;;;5.45;;
72517;SDS011;60540;51.178;6.738;2024-01-30T08:25:25;12.63;;;4.97;;
72517;SDS011;60540;51.178;6.738;2024-01-30T08:28:10;11.63;;;6.20;;
72517;SDS011;60540;51.178;6.738;2024-01-30T08:30:54;9.63;;;5.63;;
72517;SDS011;60540;51.178;6.738;2024-01-30T08:33:38;10.10;;;6.13;;
72517;SDS011;60540;51.178;6.738;2024-01-30T08:36:22;11.75;;;6.18;;
72517;SDS011;60540;51.178;6.738;2024-01-30T08:39:07;13.82;;;5.82;;
72517;SDS011;60540;51.178;6.738;2024-01-30T08:41:51;11.82;;;6.78;;
72517;SDS011;60540;51.178;6.738;2024-01-30T08:44:36;10.55;;;5.38;;
72517;SDS011;60540;51.178;6.738;2024-01-30T08:47:20;12.35;;;5.47;;
72517;SDS011;60540;51.178;6.738;2024-01-30T08:50:05;11.25;;;5.80;;
72517;SDS011;60540;51.178;6.738;2024-01-30T08:52:49;11.25;;;6.10;;
72517;SDS011;60540;51.178;6.738;2024-01-30T08:55:34;14.90;;;6.10;;
72517;SDS011;60540;51.178;6.738;2024-01-30T08:58:18;10.25;;;6.15;;
72517;SDS011;60540;51.178;6.738;2024-01-30T09:01:03;10.90;;;6.28;;
72517;SDS011;60540;51.178;6.738;2024-01-30T09:03:49;10.75;;;5.82;;
72517;SDS011;60540;51.178;6.738;2024-01-30T09:06:33;10.15;;;5.88;;
72517;SDS011;60540;51.178;6.738;2024-01-30T09:09:17;11.05;;;6.00;;
72517;SDS011;60540;51.178;6.738;2024-01-30T09:12:02;9.57;;;5.85;;
72517;SDS011;60540;51.178;6.738;2024-01-30T09:14:51;10.35;;;5.60;;
72517;SDS011;60540;51.178;6.738;2024-01-30T09:17:35;10.43;;;5.55;;
72517;SDS011;60540;51.178;6.738;2024-01-30T09:20:19;10.05;;;5.55;;
72517;SDS011;60540;51.178;6.738;2024-01-30T09:23:06;13.95;;;5.40;;
72517;SDS011;60540;51.178;6.738;2024-01-30T09:25:50;10.60;;;5.30;;
72517;SDS011;60540;51.178;6.738;2024-01-30T09:28:34;9.95;;;5.53;;
72517;SDS011;60540;51.178;6.738;2024-01-30T09:31:18;10.93;;;5.45;;
72517;SDS011;60540;51.178;6.738;2024-01-30T09:34:03;10.38;;;5.95;;
72517;SDS011;60540;51.178;6.738;2024-01-30T09:36:47;9.20;;;5.63;;
72517;SDS011;60540;51.178;6.738;2024-01-30T09:39:31;10.98;;;5.75;;
72517;SDS011;60540;51.178;6.738;2024-01-30T09:42:26;15.13;;;5.80;;
72517;SDS011;60540;51.178;6.738;2024-01-30T09:45:13;11.13;;;5.35;;
72517;SDS011;60540;51.178;6.738;2024-01-30T09:47:58;10.68;;;5.70;;
72517;SDS011;60540;51.178;6.738;2024-01-30T09:50:43;10.43;;;6.13;;
72517;SDS011;60540;51.178;6.738;2024-01-30T09:53:27;10.82;;;5.63;;
72517;SDS011;60540;51.178;6.738;2024-01-30T09:56:12;12.38;;;6.07;;
72517;SDS011;60540;51.178;6.738;2024-01-30T09:58:56;10.65;;;5.90;;
72517;SDS011;60540;51.178;6.738;2024-01-30T10:01:41;10.90;;;5.30;;
72517;SDS011;60540;51.178;6.738;2024-01-30T10:07:10;10.32;;;5.10;;
72517;SDS011;60540;51.178;6.738;2024-01-30T10:09:56;11.50;;;5.40;;
72517;SDS011;60540;51.178;6.738;2024-01-30T10:12:40;9.38;;;5.68;;
72517;SDS011;60540;51.178;6.738;2024-01-30T10:15:25;11.52;;;5.72;;
72517;SDS011;60540;51.178;6.738;2024-01-30T10:18:10;10.68;;;5.65;;
72517;SDS011;60540;51.178;6.738;2024-01-30T10:20:55;9.70;;;5.18;;
72517;SDS011;60540;51.178;6.738;2024-01-30T10:23:39;9.40;;;5.40;;
72517;SDS011;60540;51.178;6.738;2024-01-30T10:26:23;11.27;;;5.68;;
72517;SDS011;60540;51.178;6.738;2024-01-30T10:29:08;10.27;;;5.18;;
72517;SDS011;60540;51.178;6.738;2024-01-30T10:32:01;9.00;;;5.03;;
72517;SDS011;60540;51.178;6.738;2024-01-30T10:34:47;10.73;;;5.30;;
72517;SDS011;60540;51.178;6.738;2024-01-30T10:37:30;8.85;;;5.00;;
72517;SDS011;60540;51.178;6.738;2024-01-30T10:40:16;9.57;;;4.90;;
72517;SDS011;60540;51.178;6.738;2024-01-30T10:45:46;9.52;;;5.10;;
72517;SDS011;60540;51.178;6.738;2024-01-30T10:48:33;11.43;;;5.88;;
72517;SDS011;60540;51.178;6.738;2024-01-30T10:51:25;10.55;;;5.53;;
72517;SDS011;60540;51.178;6.738;2024-01-30T10:54:10;12.15;;;5.75;;
72517;SDS011;60540;51.178;6.738;2024-01-30T10:56:54;13.73;;;5.88;;
72517;SDS011;60540;51.178;6.738;2024-01-30T10:59:39;9.32;;;5.38;;
72517;SDS011;60540;51.178;6.738;2024-01-30T11:02:24;10.38;;;5.50;;
72517;SDS011;60540;51.178;6.738;2024-01-30T11:05:09;10.95;;;5.35;;
72517;SDS011;60540;51.178;6.738;2024-01-30T11:07:54;10.98;;;6.03;;
72517;SDS011;60540;51.178;6.738;2024-01-30T11:10:46;12.07;;;5.80;;
72517;SDS011;60540;51.178;6.738;2024-01-30T11:13:31;11.07;;;5.65;;
72517;SDS011;60540;51.178;6.738;2024-01-30T11:16:15;9.73;;;5.15;;
72517;SDS011;60540;51.178;6.738;2024-01-30T11:19:00;9.25;;;5.10;;
72517;SDS011;60540;51.178;6.738;2024-01-30T11:21:45;8.15;;;4.80;;
72517;SDS011;60540;51.178;6.738;2024-01-30T11:24:30;11.85;;;5.53;;
72517;SDS011;60540;51.178;6.738;2024-01-30T11:27:14;11.00;;;6.20;;
72517;SDS011;60540;51.178;6.738;2024-01-30T11:30:02;13.18;;;5.50;;
72517;SDS011;60540;51.178;6.738;2024-01-30T11:32:46;11.40;;;5.90;;
72517;SDS011;60540;51.178;6.738;2024-01-30T11:35:35;9.57;;;5.53;;
72517;SDS011;60540;51.178;6.738;2024-01-30T11:38:20;10.43;;;5.90;;
72517;SDS011;60540;51.178;6.738;2024-01-30T11:41:05;10.10;;;5.43;;
72517;SDS011;60540;51.178;6.738;2024-01-30T11:43:52;9.10;;;5.22;;
72517;SDS011;60540;51.178;6.738;2024-01-30T11:46:37;11.73;;;5.00;;
72517;SDS011;60540;51.178;6.738;2024-01-30T11:49:21;10.50;;;5.40;;
72517;SDS011;60540;51.178;6.738;2024-01-30T11:52:06;10.05;;;5.60;;
72517;SDS011;60540;51.178;6.738;2024-01-30T11:54:50;8.80;;;5.45;;
72517;SDS011;60540;51.178;6.738;2024-01-30T11:57:35;9.60;;;5.20;;
72517;SDS011;60540;51.178;6.738;2024-01-30T12:00:20;14.57;;;5.20;;
72517;SDS011;60540;51.178;6.738;2024-01-30T12:03:05;11.43;;;5.68;;
72517;SDS011;60540;51.178;6.738;2024-01-30T12:05:57;9.07;;;5.15;;
72517;SDS011;60540;51.178;6.738;2024-01-30T12:08:42;14.82;;;6.55;;
72517;SDS011;60540;51.178;6.738;2024-01-30T12:11:26;10.07;;;5.10;;
72517;SDS011;60540;51.178;6.738;2024-01-30T12:16:55;9.90;;;4.72;;
72517;SDS011;60540;51.178;6.738;2024-01-30T12:19:39;9.52;;;4.53;;
72517;SDS011;60540;51.178;6.738;2024-01-30T12:22:23;8.50;;;3.63;;
72517;SDS011;60540;51.178;6.738;2024-01-30T12:25:08;12.45;;;3.85;;
72517;SDS011;60540;51.178;6.738;2024-01-30T12:30:38;5.80;;;3.13;;
72517;SDS011;60540;51.178;6.738;2024-01-30T12:33:24;8.32;;;3.22;;
72517;SDS011;60540;51.178;6.738;2024-01-30T12:36:11;7.25;;;3.28;;
72517;SDS011;60540;51.178;6.738;2024-01-30T12:38:55;7.38;;;3.72;;
72517;SDS011;60540;51.178;6.738;2024-01-30T12:41:41;7.50;;;3.67;;
72517;SDS011;60540;51.178;6.738;2024-01-30T12:44:25;7.35;;;4.10;;
72517;SDS011;60540;51.178;6.738;2024-01-30T12:47:09;7.88;;;3.60;;
72517;SDS011;60540;51.178;6.738;2024-01-30T12:49:54;10.63;;;4.43;;
72517;SDS011;60540;51.178;6.738;2024-01-30T12:52:38;7.90;;;4.05;;
72517;SDS011;60540;51.178;6.738;2024-01-30T12:55:23;10.15;;;3.85;;
72517;SDS011;60540;51.178;6.738;2024-01-30T12:58:08;10.68;;;4.05;;
72517;SDS011;60540;51.178;6.738;2024-01-30T13:00:52;8.43;;;4.03;;
72517;SDS011;60540;51.178;6.738;2024-01-30T13:06:21;9.85;;;3.75;;
72517;SDS011;60540;51.178;6.738;2024-01-30T13:09:06;8.85;;;4.93;;
72517;SDS011;60540;51.178;6.738;2024-01-30T13:11:50;7.95;;;3.60;;
72517;SDS011;60540;51.178;6.738;2024-01-30T13:17:20;9.75;;;4.35;;
72517;SDS011;60540;51.178;6.738;2024-01-30T13:20:04;8.05;;;3.92;;
72517;SDS011;60540;51.178;6.738;2024-01-30T13:22:49;9.63;;;3.80;;
72517;SDS011;60540;51.178;6.738;2024-01-30T13:25:34;6.50;;;3.75;;
72517;SDS011;60540;51.178;6.738;2024-01-30T13:28:18;8.00;;;3.78;;
72517;SDS011;60540;51.178;6.738;2024-01-30T13:31:03;7.35;;;3.92;;
72517;SDS011;60540;51.178;6.738;2024-01-30T13:33:49;12.85;;;4.15;;
72517;SDS011;60540;51.178;6.738;2024-01-30T13:36:33;10.68;;;4.30;;
72517;SDS011;60540;51.178;6.738;2024-01-30T13:39:17;8.50;;;4.15;;
72517;SDS011;60540;51.178;6.738;2024-01-30T13:42:02;7.88;;;3.88;;
72517;SDS011;60540;51.178;6.738;2024-01-30T13:44:46;7.97;;;4.35;;
72517;SDS011;60540;51.178;6.738;2024-01-30T13:47:31;8.60;;;4.18;;
72517;SDS011;60540;51.178;6.738;2024-01-30T13:50:15;8.15;;;3.90;;
72517;SDS011;60540;51.178;6.738;2024-01-30T13:53:01;9.38;;;3.92;;
72517;SDS011;60540;51.178;6.738;2024-01-30T13:55:46;9.30;;;4.50;;
72517;SDS011;60540;51.178;6.738;2024-01-30T13:58:31;11.07;;;4.70;;
72517;SDS011;60540;51.178;6.738;2024-01-30T14:01:17;8.18;;;4.00;;
72517;SDS011;60540;51.178;6.738;2024-01-30T14:04:02;9.98;;;4.78;;
72517;SDS011;60540;51.178;6.738;2024-01-30T14:06:46;8.52;;;4.18;;
72517;SDS011;60540;51.178;6.738;2024-01-30T14:09:30;10.02;;;4.40;;
72517;SDS011;60540;51.178;6.738;2024-01-30T14:12:16;8.18;;;4.57;;
72517;SDS011;60540;51.178;6.738;2024-01-30T14:15:00;7.65;;;4.18;;
72517;SDS011;60540;51.178;6.738;2024-01-30T14:17:45;10.75;;;4.50;;
72517;SDS011;60540;51.178;6.738;2024-01-30T14:20:32;9.27;;;3.75;;
72517;SDS011;60540;51.178;6.738;2024-01-30T14:23:17;9.13;;;3.92;;
72517;SDS011;60540;51.178;6.738;2024-01-30T14:28:45;8.68;;;4.15;;
72517;SDS011;60540;51.178;6.738;2024-01-30T14:31:30;7.50;;;3.90;;
72517;SDS011;60540;51.178;6.738;2024-01-30T14:34:14;9.18;;;4.38;;
72517;SDS011;60540;51.178;6.738;2024-01-30T14:36:58;10.18;;;4.53;;
72517;SDS011;60540;51.178;6.738;2024-01-30T14:39:42;7.53;;;4.25;;
72517;SDS011;60540;51.178;6.738;2024-01-30T14:42:27;8.60;;;5.07;;
72517;SDS011;60540;51.178;6.738;2024-01-30T14:45:15;8.82;;;4.70;;
72517;SDS011;60540;51.178;6.738;2024-01-30T14:48:00;14.68;;;5.45;;
72517;SDS011;60540;51.178;6.738;2024-01-30T14:50:44;8.85;;;4.68;;
72517;SDS011;60540;51.178;6.738;2024-01-30T14:53:29;11.23;;;4.68;;
72517;SDS011;60540;51.178;6.738;2024-01-30T14:56:13;9.88;;;4.38;;
72517;SDS011;60540;51.178;6.738;2024-01-30T14:58:58;7.88;;;4.40;;
72517;SDS011;60540;51.178;6.738;2024-01-30T15:01:42;11.95;;;4.43;;
72517;SDS011;60540;51.178;6.738;2024-01-30T15:07:11;8.98;;;4.05;;
72517;SDS011;60540;51.178;6.738;2024-01-30T15:09:56;7.50;;;3.88;;
72517;SDS011;60540;51.178;6.738;2024-01-30T15:12:40;8.23;;;4.63;;
72517;SDS011;60540;51.178;6.738;2024-01-30T15:15:24;7.93;;;3.92;;
72517;SDS011;60540;51.178;6.738;2024-01-30T15:18:08;10.18;;;3.47;;
72517;SDS011;60540;51.178;6.738;2024-01-30T15:20:55;7.55;;;3.80;;
72517;SDS011;60540;51.178;6.738;2024-01-30T15:23:39;6.65;;;2.88;;
72517;SDS011;60540;51.178;6.738;2024-01-30T15:26:24;5.20;;;2.58;;
72517;SDS011;60540;51.178;6.738;2024-01-30T15:29:08;5.43;;;2.30;;
72517;SDS011;60540;51.178;6.738;2024-01-30T15:31:52;5.57;;;2.70;;
72517;SDS011;60540;51.178;6.738;2024-01-30T15:34:36;5.25;;;2.00;;
72517;SDS011;60540;51.178;6.738;2024-01-30T15:37:21;7.57;;;2.40;;
72517;SDS011;60540;51.178;6.738;2024-01-30T15:40:05;5.93;;;2.28;;
72517;SDS011;60540;51.178;6.738;2024-01-30T15:45:34;4.80;;;2.20;;
72517;SDS011;60540;51.178;6.738;2024-01-30T15:48:19;4.93;;;2.55;;
72517;SDS011;60540;51.178;6.738;2024-01-30T15:51:03;4.80;;;2.35;;
72517;SDS011;60540;51.178;6.738;2024-01-30T15:53:48;5.88;;;1.85;;
72517;SDS011;60540;51.178;6.738;2024-01-30T15:56:34;5.05;;;2.22;;
72517;SDS011;60540;51.178;6.738;2024-01-30T15:59:19;7.03;;;2.00;;
72517;SDS011;60540;51.178;6.738;2024-01-30T16:02:03;5.07;;;1.50;;
72517;SDS011;60540;51.178;6.738;2024-01-30T16:04:47;4.68;;;1.63;;
72517;SDS011;60540;51.178;6.738;2024-01-30T16:10:17;3.70;;;1.45;;
72517;SDS011;60540;51.178;6.738;2024-01-30T16:13:01;3.47;;;1.20;;
72517;SDS011;60540;51.178;6.738;2024-01-30T16:15:45;2.45;;;1.05;;
72517;SDS011;60540;51.178;6.738;2024-01-30T16:18:30;1.55;;;0.80;;
72517;SDS011;60540;51.178;6.738;2024-01-30T16:21:15;2.55;;;1.02;;
72517;SDS011;60540;51.178;6.738;2024-01-30T16:24:00;2.60;;;1.15;;
72517;SDS011;60540;51.178;6.738;2024-01-30T16:26:44;1.42;;;0.90;;
72517;SDS011;60540;51.178;6.738;2024-01-30T16:29:28;3.55;;;1.02;;
72517;SDS011;60540;51.178;6.738;2024-01-30T16:32:13;1.80;;;0.80;;
72517;SDS011;60540;51.178;6.738;2024-01-30T16:34:57;2.35;;;0.88;;
72517;SDS011;60540;51.178;6.738;2024-01-30T16:37:43;2.45;;;0.90;;
72517;SDS011;60540;51.178;6.738;2024-01-30T16:40:27;2.17;;;0.85;;
72517;SDS011;60540;51.178;6.738;2024-01-30T16:43:12;3.55;;;1.10;;
72517;SDS011;60540;51.178;6.738;2024-01-30T16:45:56;3.00;;;0.95;;
72517;SDS011;60540;51.178;6.738;2024-01-30T16:48:40;1.52;;;0.80;;
72517;SDS011;60540;51.178;6.738;2024-01-30T16:51:25;3.28;;;1.48;;